Time;durP1;ratioP1;P1;durP2;ratioP2;P2;SDS_P1;SDS_P2;PMS_P1;PMS_P2;Temp;Humidity;BMP_temperature;BMP_pressure;BME280_temperature;BME280_humidity;BME280_pressure;Samples;Min_cycle;Max_cycle;Signal;HPM_P1;HPM_P2
2022/08/03 00:02:20;;;;;;;;;;;19.00;99.90;;;;;;5052841;28;19916;-48
2022/08/03 00:04:46;;;;;;;;;;;19.00;99.90;;;;;;5052352;28;19916;-44
2022/08/03 00:07:12;;;;;;;;;;;18.90;99.90;;;;;;5052113;28;20006;-45
2022/08/03 00:09:37;;;;;;;;;;;18.90;99.90;;;;;;5052572;28;20351;-46
2022/08/03 00:12:03;;;;;;;;;;;18.90;99.90;;;;;;5052600;28;20409;-46
2022/08/03 00:14:28;;;;;;;;;;;18.80;99.90;;;;;;5052248;28;19916;-44
2022/08/03 00:16:54;;;;;;;;;;;18.80;99.90;;;;;;5052149;28;20007;-47
2022/08/03 00:19:19;;;;;;;;;;;18.80;99.90;;;;;;5051151;28;19924;-45
2022/08/03 00:21:45;;;;;;;;;;;18.80;99.90;;;;;;5052139;28;20011;-45
2022/08/03 00:24:11;;;;;;;;;;;18.80;99.90;;;;;;5052709;28;20346;-47
2022/08/03 00:26:36;;;;;;;;;;;18.80;99.90;;;;;;5051064;28;20007;-47
2022/08/03 00:29:02;;;;;;;;;;;18.70;99.90;;;;;;5051487;28;20398;-49
2022/08/03 00:31:27;;;;;;;;;;;18.60;99.90;;;;;;5052377;28;19946;-47
2022/08/03 00:33:53;;;;;;;;;;;18.60;99.90;;;;;;5051842;28;19936;-48
2022/08/03 00:36:18;;;;;;;;;;;18.60;99.90;;;;;;5051004;28;19916;-48
2022/08/03 00:38:44;;;;;;;;;;;18.50;99.90;;;;;;5051561;28;20321;-47
2022/08/03 00:41:09;;;;;;;;;;;18.50;99.90;;;;;;5050524;28;19932;-45
2022/08/03 00:43:35;;;;;;;;;;;18.50;99.90;;;;;;5051475;28;20000;-47
2022/08/03 00:46:00;;;;;;;;;;;18.50;99.90;;;;;;5051223;28;20290;-45
2022/08/03 00:48:26;;;;;;;;;;;18.50;99.90;;;;;;5050954;28;19920;-48
2022/08/03 00:50:51;;;;;;;;;;;18.40;99.90;;;;;;5050968;28;19920;-49
2022/08/03 00:53:17;;;;;;;;;;;18.40;99.90;;;;;;5051682;28;20585;-46
2022/08/03 00:55:43;;;;;;;;;;;18.40;99.90;;;;;;5051316;28;19917;-47
2022/08/03 00:58:10;;;;;;;;;;;18.30;99.90;;;;;;5051188;28;19928;-47
2022/08/03 01:00:37;;;;;;;;;;;18.30;99.90;;;;;;5050223;28;20393;-45
2022/08/03 01:03:03;;;;;;;;;;;18.20;99.90;;;;;;5050210;28;19916;-49
2022/08/03 01:05:30;;;;;;;;;;;18.20;99.90;;;;;;5050611;28;19963;-46
2022/08/03 01:08:10;;;;;;;;;;;18.20;99.90;;;;;;5051270;28;20363;-47
2022/08/03 01:10:52;;;;;;;;;;;18.20;99.90;;;;;;5051048;28;19970;-49
2022/08/03 01:13:20;;;;;;;;;;;18.20;99.90;;;;;;5050637;28;19920;-47
2022/08/03 01:16:18;;;;;;;;;;;18.20;99.90;;;;;;5050299;28;19924;-46
2022/08/03 01:18:45;;;;;;;;;;;18.30;99.90;;;;;;5027866;28;19947;-49
2022/08/03 01:21:25;;;;;;;;;;;18.30;99.90;;;;;;5051231;28;19923;-45
2022/08/03 01:23:54;;;;;;;;;;;18.40;99.90;;;;;;5051187;28;19917;-47
2022/08/03 01:26:38;;;;;;;;;;;18.40;99.90;;;;;;5050035;28;20324;-48
2022/08/03 01:29:36;;;;;;;;;;;18.40;99.90;;;;;;5051259;28;19921;-46
2022/08/03 01:32:04;;;;;;;;;;;18.50;99.90;;;;;;5018072;28;19917;-46
2022/08/03 01:34:35;;;;;;;;;;;18.60;99.90;;;;;;5045578;28;19917;-45
2022/08/03 01:37:03;;;;;;;;;;;18.70;99.90;;;;;;5050360;28;19933;-47
2022/08/03 01:39:30;;;;;;;;;;;18.70;99.90;;;;;;5051144;28;19920;-46
2022/08/03 01:41:58;;;;;;;;;;;18.80;99.90;;;;;;5051000;28;19917;-47
2022/08/03 01:44:24;;;;;;;;;;;18.90;99.90;;;;;;5049134;28;19978;-47
2022/08/03 01:46:50;;;;;;;;;;;18.90;99.90;;;;;;5050916;28;20299;-47
2022/08/03 01:49:16;;;;;;;;;;;18.90;99.90;;;;;;5050300;28;19924;-48
2022/08/03 01:51:43;;;;;;;;;;;19.00;99.90;;;;;;5050839;28;19938;-48
2022/08/03 01:54:10;;;;;;;;;;;19.00;99.90;;;;;;5050416;28;19923;-45
2022/08/03 01:56:36;;;;;;;;;;;19.00;99.90;;;;;;5050896;28;19939;-46
2022/08/03 01:59:02;;;;;;;;;;;19.00;99.90;;;;;;5050610;28;19917;-46
2022/08/03 02:01:28;;;;;;;;;;;19.00;99.90;;;;;;5050454;28;19920;-48
2022/08/03 02:03:55;;;;;;;;;;;19.00;99.90;;;;;;5049885;28;20011;-47
2022/08/03 02:06:21;;;;;;;;;;;19.00;99.90;;;;;;5050653;28;19964;-47
2022/08/03 02:08:47;;;;;;;;;;;19.10;99.90;;;;;;5050969;28;19963;-46
2022/08/03 02:11:13;;;;;;;;;;;19.10;99.90;;;;;;5049706;28;19924;-48
2022/08/03 02:13:39;;;;;;;;;;;19.10;99.90;;;;;;5050110;28;19917;-46
2022/08/03 02:16:05;;;;;;;;;;;19.10;99.90;;;;;;5050150;28;19916;-47
2022/08/03 02:18:32;;;;;;;;;;;19.10;99.90;;;;;;5050422;28;19925;-47
2022/08/03 02:21:02;;;;;;;;;;;19.10;99.90;;;;;;5049873;28;19924;-46
2022/08/03 02:23:28;;;;;;;;;;;19.10;99.90;;;;;;5050216;28;19928;-47
2022/08/03 02:25:56;;;;;;;;;;;19.10;99.90;;;;;;5049754;28;19985;-44
2022/08/03 02:28:25;;;;;;;;;;;19.10;99.90;;;;;;5047788;28;19999;-50
2022/08/03 02:30:52;;;;;;;;;;;19.00;99.90;;;;;;5049172;28;20006;-46
2022/08/03 02:33:26;;;;;;;;;;;19.00;99.90;;;;;;5049719;28;19931;-47
2022/08/03 02:35:52;;;;;;;;;;;19.00;99.90;;;;;;5049900;28;19916;-47
2022/08/03 02:38:18;;;;;;;;;;;19.00;99.90;;;;;;5049599;28;19927;-46
2022/08/03 02:40:45;;;;;;;;;;;19.00;99.90;;;;;;5049063;28;20380;-45
2022/08/03 02:43:11;;;;;;;;;;;19.00;99.90;;;;;;5049497;28;20398;-48
2022/08/03 02:45:42;;;;;;;;;;;18.90;99.90;;;;;;5049206;28;19920;-48
2022/08/03 02:48:09;;;;;;;;;;;18.90;99.90;;;;;;5036840;28;19920;-47
2022/08/03 02:50:35;;;;;;;;;;;18.90;99.90;;;;;;5050097;28;19964;-47
2022/08/03 02:53:01;;;;;;;;;;;18.90;99.90;;;;;;5049844;28;20424;-45
2022/08/03 02:55:27;;;;;;;;;;;18.90;99.90;;;;;;5049450;28;19951;-47
2022/08/03 02:57:53;;;;;;;;;;;18.80;99.90;;;;;;5049223;28;19964;-44
2022/08/03 03:00:19;;;;;;;;;;;18.90;99.90;;;;;;5049283;28;19951;-47
2022/08/03 03:02:45;;;;;;;;;;;18.80;99.90;;;;;;5050148;28;19952;-47
2022/08/03 03:05:11;;;;;;;;;;;18.80;99.90;;;;;;5049046;28;19923;-47
2022/08/03 03:07:37;;;;;;;;;;;18.80;99.90;;;;;;5049678;28;19916;-46
2022/08/03 03:10:03;;;;;;;;;;;18.80;99.90;;;;;;5049449;28;19967;-46
2022/08/03 03:12:30;;;;;;;;;;;18.80;99.90;;;;;;5048105;28;19999;-47
2022/08/03 03:14:56;;;;;;;;;;;18.70;99.90;;;;;;5049215;28;20019;-46
2022/08/03 03:17:22;;;;;;;;;;;18.70;99.90;;;;;;5049368;28;20023;-46
2022/08/03 03:19:48;;;;;;;;;;;18.70;99.90;;;;;;5049910;28;19970;-46
2022/08/03 03:22:14;;;;;;;;;;;18.70;99.90;;;;;;5049538;28;20386;-47
2022/08/03 03:24:40;;;;;;;;;;;18.70;99.90;;;;;;5049285;28;19996;-47
2022/08/03 03:27:06;;;;;;;;;;;18.70;99.90;;;;;;5049144;28;20368;-47
2022/08/03 03:29:33;;;;;;;;;;;18.70;99.90;;;;;;5049704;28;19917;-48
2022/08/03 03:31:59;;;;;;;;;;;18.70;99.90;;;;;;5049598;28;19920;-47
2022/08/03 03:34:25;;;;;;;;;;;18.70;99.90;;;;;;5052573;28;20042;-47
2022/08/03 03:36:50;;;;;;;;;;;18.70;99.90;;;;;;5053115;28;20014;-48
2022/08/03 03:39:16;;;;;;;;;;;18.60;99.90;;;;;;5053192;28;20378;-44
2022/08/03 03:41:42;;;;;;;;;;;18.60;99.90;;;;;;5052448;28;19917;-46
2022/08/03 03:44:07;;;;;;;;;;;18.60;99.90;;;;;;5052327;28;19916;-46
2022/08/03 03:46:33;;;;;;;;;;;18.60;99.90;;;;;;5033191;28;19940;-46
2022/08/03 03:48:58;;;;;;;;;;;18.60;99.90;;;;;;5033282;28;20039;-46
2022/08/03 03:51:23;;;;;;;;;;;18.60;99.90;;;;;;5033477;28;19921;-46
2022/08/03 03:53:59;;;;;;;;;;;18.60;99.90;;;;;;5032901;28;20404;-46
2022/08/03 03:56:25;;;;;;;;;;;18.50;99.90;;;;;;5048434;28;19916;-44
2022/08/03 03:58:51;;;;;;;;;;;18.60;99.90;;;;;;5053098;28;19921;-45
2022/08/03 04:01:16;;;;;;;;;;;18.60;99.90;;;;;;5052725;28;20405;-46
2022/08/03 04:03:42;;;;;;;;;;;18.60;99.90;;;;;;5052732;28;19916;-44
2022/08/03 04:11:43;;;;;;;;;;;18.60;99.90;;;;;;5043899;28;20011;-46
2022/08/03 04:14:10;;;;;;;;;;;18.60;99.90;;;;;;5052623;28;20043;-46
2022/08/03 04:16:41;;;;;;;;;;;18.60;99.90;;;;;;5052283;28;20416;-47
2022/08/03 04:19:08;;;;;;;;;;;18.60;99.90;;;;;;5052091;28;19921;-46
2022/08/03 04:21:36;;;;;;;;;;;18.60;99.90;;;;;;5052626;28;19934;-44
2022/08/03 04:24:02;;;;;;;;;;;18.60;99.90;;;;;;5051610;28;19916;-45
2022/08/03 04:26:33;;;;;;;;;;;18.60;99.90;;;;;;5052082;28;20344;-44
2022/08/03 04:28:59;;;;;;;;;;;18.60;99.90;;;;;;5052199;28;19923;-44
2022/08/03 04:31:26;;;;;;;;;;;18.60;99.90;;;;;;5052108;28;20416;-46
2022/08/03 04:33:52;;;;;;;;;;;18.50;99.90;;;;;;5051013;28;20015;-47
2022/08/03 04:36:20;;;;;;;;;;;18.60;99.90;;;;;;5052188;28;19920;-48
2022/08/03 04:38:51;;;;;;;;;;;18.60;99.90;;;;;;5051451;28;20374;-46
2022/08/03 04:41:18;;;;;;;;;;;18.60;99.90;;;;;;5048497;28;19921;-48
2022/08/03 04:43:44;;;;;;;;;;;18.60;99.90;;;;;;5051075;28;19933;-46
2022/08/03 04:46:09;;;;;;;;;;;18.60;99.90;;;;;;5051769;28;20003;-48
2022/08/03 04:48:35;;;;;;;;;;;18.60;99.90;;;;;;5051001;28;19920;-46
2022/08/03 04:51:03;;;;;;;;;;;18.60;99.90;;;;;;5050709;28;19916;-44
2022/08/03 04:53:29;;;;;;;;;;;18.60;99.90;;;;;;5050751;28;20485;-49
2022/08/03 04:55:54;;;;;;;;;;;18.60;99.90;;;;;;5051459;28;19995;-46
2022/08/03 04:58:20;;;;;;;;;;;18.70;99.90;;;;;;5051029;28;19921;-46
2022/08/03 05:00:49;;;;;;;;;;;18.70;99.90;;;;;;5051404;28;19924;-46
2022/08/03 05:03:15;;;;;;;;;;;18.70;99.90;;;;;;5051342;28;20014;-49
2022/08/03 05:05:40;;;;;;;;;;;18.80;99.90;;;;;;5051258;28;20402;-47
2022/08/03 05:08:06;;;;;;;;;;;18.80;99.90;;;;;;5051662;28;19939;-46
2022/08/03 05:10:31;;;;;;;;;;;18.80;99.90;;;;;;5051004;28;20004;-46
2022/08/03 05:12:57;;;;;;;;;;;18.90;99.90;;;;;;5050814;28;20393;-47
2022/08/03 05:15:22;;;;;;;;;;;18.90;99.90;;;;;;5050146;28;20031;-45
2022/08/03 05:17:48;;;;;;;;;;;19.00;99.90;;;;;;5051005;28;19990;-48
2022/08/03 05:20:13;;;;;;;;;;;19.00;99.90;;;;;;5050815;28;20015;-51
2022/08/03 05:22:39;;;;;;;;;;;19.10;99.90;;;;;;5051236;28;19923;-47
2022/08/03 05:25:04;;;;;;;;;;;19.20;99.90;;;;;;5050657;28;20378;-46
2022/08/03 05:27:30;;;;;;;;;;;19.30;99.90;;;;;;5050978;28;19962;-45
2022/08/03 05:29:55;;;;;;;;;;;19.30;99.90;;;;;;5050965;28;19924;-48
2022/08/03 05:32:21;;;;;;;;;;;19.40;99.90;;;;;;5050895;28;20296;-46
2022/08/03 05:34:46;;;;;;;;;;;19.50;99.90;;;;;;5050672;28;19986;-45
2022/08/03 05:37:12;;;;;;;;;;;19.50;99.90;;;;;;5049835;28;19928;-47
2022/08/03 05:39:37;;;;;;;;;;;19.60;99.90;;;;;;5050622;28;19963;-45
2022/08/03 05:42:03;;;;;;;;;;;19.70;99.90;;;;;;5050271;28;20470;-46
2022/08/03 05:44:29;;;;;;;;;;;19.70;99.90;;;;;;5050589;28;19916;-47
2022/08/03 05:46:55;;;;;;;;;;;19.80;99.90;;;;;;5050262;28;20365;-48
2022/08/03 05:49:20;;;;;;;;;;;19.90;99.90;;;;;;5050182;28;20203;-46
2022/08/03 05:51:46;;;;;;;;;;;20.00;99.90;;;;;;5050478;28;19916;-47
2022/08/03 05:54:11;;;;;;;;;;;20.00;99.90;;;;;;5049422;28;20400;-47
2022/08/03 05:56:39;;;;;;;;;;;20.10;99.90;;;;;;5048709;28;19923;-46
2022/08/03 05:59:05;;;;;;;;;;;20.20;99.90;;;;;;5050202;28;20377;-47
2022/08/03 06:01:31;;;;;;;;;;;20.20;99.90;;;;;;5050861;28;19917;-46
2022/08/03 06:03:57;;;;;;;;;;;20.30;99.90;;;;;;5050469;28;20022;-47
2022/08/03 06:06:23;;;;;;;;;;;20.30;99.90;;;;;;5050503;28;19917;-47
2022/08/03 06:08:48;;;;;;;;;;;20.30;99.90;;;;;;5050661;28;20428;-46
2022/08/03 06:11:15;;;;;;;;;;;20.30;99.90;;;;;;5050676;28;19936;-48
2022/08/03 06:13:41;;;;;;;;;;;20.40;99.90;;;;;;5050321;28;19923;-46
2022/08/03 06:16:06;;;;;;;;;;;20.40;99.90;;;;;;5049918;28;20007;-46
2022/08/03 06:18:32;;;;;;;;;;;20.50;99.90;;;;;;5050071;28;19921;-47
2022/08/03 06:20:57;;;;;;;;;;;20.60;99.90;;;;;;5050433;28;19917;-48
2022/08/03 06:23:23;;;;;;;;;;;20.60;99.90;;;;;;5047918;28;20003;-48
2022/08/03 06:25:48;;;;;;;;;;;20.60;99.90;;;;;;5049827;28;20294;-52
2022/08/03 06:28:14;;;;;;;;;;;20.70;99.90;;;;;;5050021;28;20008;-47
2022/08/03 06:30:40;;;;;;;;;;;20.70;99.90;;;;;;5048595;28;19928;-50
2022/08/03 06:33:05;;;;;;;;;;;20.70;99.90;;;;;;5048629;28;19932;-48
2022/08/03 06:35:31;;;;;;;;;;;20.80;99.90;;;;;;5049405;28;19923;-50
2022/08/03 06:37:57;;;;;;;;;;;20.80;99.90;;;;;;5050262;28;19920;-48
2022/08/03 06:40:30;;;;;;;;;;;20.80;99.90;;;;;;5050176;28;19916;-51
2022/08/03 06:42:56;;;;;;;;;;;20.90;99.90;;;;;;5047407;28;19916;-48
2022/08/03 06:45:22;;;;;;;;;;;21.00;99.90;;;;;;5048280;28;19916;-45
2022/08/03 06:47:58;;;;;;;;;;;21.10;99.90;;;;;;5048884;28;20375;-49
2022/08/03 06:50:23;;;;;;;;;;;21.20;99.90;;;;;;5049035;28;19920;-47
2022/08/03 06:52:49;;;;;;;;;;;21.30;99.90;;;;;;5048939;28;19971;-50
2022/08/03 06:55:14;;;;;;;;;;;21.40;99.90;;;;;;5048628;28;19931;-47
2022/08/03 06:57:40;;;;;;;;;;;21.50;99.90;;;;;;5048993;28;19920;-47
2022/08/03 07:00:06;;;;;;;;;;;21.50;99.90;;;;;;5030210;28;19917;-47
2022/08/03 07:02:31;;;;;;;;;;;21.60;99.90;;;;;;5049336;28;19917;-51
2022/08/03 07:04:56;;;;;;;;;;;21.70;99.90;;;;;;5049062;28;20373;-48
2022/08/03 07:07:22;;;;;;;;;;;21.70;99.90;;;;;;5051821;28;19921;-48
2022/08/03 07:09:47;;;;;;;;;;;21.80;99.90;;;;;;5053079;28;19917;-48
2022/08/03 07:12:13;;;;;;;;;;;21.90;99.90;;;;;;5052812;28;19927;-49
2022/08/03 07:14:38;;;;;;;;;;;22.00;99.90;;;;;;5053432;28;19923;-49
2022/08/03 07:17:04;;;;;;;;;;;22.20;99.90;;;;;;5051088;28;20560;-48
2022/08/03 07:19:29;;;;;;;;;;;22.30;99.90;;;;;;5051932;28;19923;-48
2022/08/03 07:21:55;;;;;;;;;;;22.40;99.90;;;;;;5052488;28;20440;-52
2022/08/03 07:24:21;;;;;;;;;;;22.50;99.90;;;;;;5053144;28;19924;-49
2022/08/03 07:26:46;;;;;;;;;;;22.50;99.90;;;;;;5053408;28;19924;-48
2022/08/03 07:29:12;;;;;;;;;;;22.40;99.90;;;;;;5052547;28;19916;-47
2022/08/03 07:31:37;;;;;;;;;;;22.40;99.90;;;;;;5050602;28;19925;-48
2022/08/03 07:34:03;;;;;;;;;;;22.50;99.90;;;;;;5051399;28;19917;-49
2022/08/03 07:36:28;;;;;;;;;;;22.50;99.90;;;;;;5051886;28;20370;-47
2022/08/03 07:38:54;;;;;;;;;;;22.50;99.90;;;;;;5051972;28;20011;-49
2022/08/03 07:41:19;;;;;;;;;;;22.60;99.90;;;;;;5052685;28;19924;-48
2022/08/03 07:43:45;;;;;;;;;;;22.70;99.90;;;;;;5051463;28;19959;-46
2022/08/03 07:46:10;;;;;;;;;;;22.80;99.90;;;;;;5052274;28;19917;-48
2022/08/03 07:48:36;;;;;;;;;;;22.80;99.90;;;;;;5051844;28;19991;-48
2022/08/03 07:51:02;;;;;;;;;;;22.80;99.90;;;;;;5049266;28;19936;-48
2022/08/03 07:53:28;;;;;;;;;;;22.90;99.90;;;;;;5050553;28;19916;-46
2022/08/03 07:55:53;;;;;;;;;;;23.00;99.90;;;;;;5053237;28;20278;-46
2022/08/03 07:58:20;;;;;;;;;;;23.00;99.90;;;;;;5048641;28;20085;-47
2022/08/03 08:00:45;;;;;;;;;;;23.00;99.90;;;;;;5055278;28;19916;-46
2022/08/03 08:03:12;;;;;;;;;;;23.10;99.90;;;;;;5048525;28;19931;-46
2022/08/03 08:05:37;;;;;;;;;;;23.20;99.90;;;;;;5048418;28;19924;-46
2022/08/03 08:08:03;;;;;;;;;;;23.20;99.90;;;;;;5023576;28;19923;-48
2022/08/03 08:10:28;;;;;;;;;;;23.30;99.90;;;;;;5051425;28;20027;-48
2022/08/03 08:12:54;;;;;;;;;;;23.30;99.90;;;;;;5052241;28;19924;-46
2022/08/03 08:15:20;;;;;;;;;;;23.40;99.90;;;;;;5052298;28;19917;-48
2022/08/03 08:17:45;;;;;;;;;;;23.50;99.90;;;;;;5052371;28;19943;-47
2022/08/03 08:20:14;;;;;;;;;;;23.60;99.90;;;;;;5053237;28;20388;-48
2022/08/03 08:22:39;;;;;;;;;;;23.60;99.90;;;;;;5050092;28;20037;-48
2022/08/03 08:25:05;;;;;;;;;;;23.60;99.90;;;;;;5052818;28;19925;-47
2022/08/03 08:27:31;;;;;;;;;;;23.60;99.90;;;;;;5048393;28;20008;-47
2022/08/03 08:29:56;;;;;;;;;;;23.70;99.90;;;;;;5050923;28;19916;-47
2022/08/03 08:32:22;;;;;;;;;;;23.70;99.90;;;;;;5049823;28;20108;-47
2022/08/03 08:34:47;;;;;;;;;;;23.70;99.90;;;;;;5052383;28;19920;-48
2022/08/03 08:37:13;;;;;;;;;;;23.70;99.90;;;;;;5049362;28;19924;-47
2022/08/03 08:39:38;;;;;;;;;;;23.80;99.90;;;;;;5050938;28;19974;-49
2022/08/03 08:42:04;;;;;;;;;;;23.80;99.90;;;;;;5052157;28;20041;-48
2022/08/03 08:44:29;;;;;;;;;;;23.90;99.90;;;;;;5050227;28;19920;-47
2022/08/03 08:46:56;;;;;;;;;;;24.00;99.90;;;;;;5052875;28;20139;-46
2022/08/03 08:49:23;;;;;;;;;;;24.10;99.90;;;;;;5049101;28;20318;-47
2022/08/03 08:51:49;;;;;;;;;;;24.20;99.90;;;;;;5051996;28;19971;-46
2022/08/03 08:54:16;;;;;;;;;;;24.30;99.90;;;;;;5052125;28;19917;-46
2022/08/03 08:56:43;;;;;;;;;;;24.30;99.90;;;;;;5052866;28;20552;-48
2022/08/03 08:59:08;;;;;;;;;;;24.40;99.90;;;;;;5054098;28;19921;-47
2022/08/03 09:01:34;;;;;;;;;;;24.50;99.90;;;;;;5048982;28;20336;-46
2022/08/03 09:03:59;;;;;;;;;;;24.50;99.90;;;;;;5052667;28;20241;-49
2022/08/03 09:06:24;;;;;;;;;;;24.60;99.90;;;;;;5050692;28;19917;-47
2022/08/03 09:08:50;;;;;;;;;;;24.70;99.90;;;;;;5050248;28;20388;-46
2022/08/03 09:11:19;;;;;;;;;;;24.70;99.90;;;;;;5049143;28;19925;-49
2022/08/03 09:13:44;;;;;;;;;;;24.80;99.90;;;;;;5053541;28;20809;-48
2022/08/03 09:16:11;;;;;;;;;;;24.90;99.90;;;;;;5054750;28;20002;-49
2022/08/03 09:18:37;;;;;;;;;;;25.00;99.90;;;;;;5049647;28;21127;-46
2022/08/03 09:21:16;;;;;;;;;;;25.10;99.90;;;;;;5054520;28;20434;-46
2022/08/03 09:23:46;;;;;;;;;;;25.10;99.90;;;;;;5047094;28;20072;-49
2022/08/03 09:26:12;;;;;;;;;;;25.20;99.90;;;;;;5033622;28;19927;-48
2022/08/03 09:28:38;;;;;;;;;;;25.30;99.90;;;;;;5039873;28;19990;-46
2022/08/03 09:31:03;;;;;;;;;;;25.40;99.90;;;;;;5037109;28;20429;-47
2022/08/03 09:33:29;;;;;;;;;;;25.40;99.90;;;;;;5052203;28;19956;-45
2022/08/03 09:35:55;;;;;;;;;;;25.50;99.60;;;;;;5052814;28;19942;-46
2022/08/03 09:38:26;;;;;;;;;;;25.60;99.90;;;;;;5051144;28;19920;-46
2022/08/03 09:40:52;;;;;;;;;;;25.70;99.90;;;;;;5041135;28;19925;-47
2022/08/03 09:43:18;;;;;;;;;;;25.70;98.90;;;;;;5041465;28;19954;-45
2022/08/03 09:45:44;;;;;;;;;;;25.80;98.10;;;;;;5053819;28;19927;-48
2022/08/03 09:48:23;;;;;;;;;;;25.80;98.80;;;;;;5052024;28;19920;-46
2022/08/03 09:50:52;;;;;;;;;;;25.90;98.40;;;;;;5053108;28;20032;-46
2022/08/03 09:53:18;;;;;;;;;;;26.00;99.20;;;;;;5049349;28;20146;-47
2022/08/03 09:55:53;;;;;;;;;;;26.10;98.50;;;;;;5052123;28;20373;-46
2022/08/03 09:58:22;;;;;;;;;;;26.10;97.80;;;;;;5052535;28;20445;-47
2022/08/03 10:01:14;;;;;;;;;;;26.20;97.70;;;;;;5052805;28;19925;-47
2022/08/03 10:03:40;;;;;;;;;;;26.30;98.00;;;;;;5049300;28;19920;-46
2022/08/03 10:06:18;;;;;;;;;;;26.50;97.30;;;;;;5055984;28;19922;-45
2022/08/03 10:08:43;;;;;;;;;;;26.60;97.10;;;;;;5054251;28;19916;-45
2022/08/03 10:11:09;;;;;;;;;;;26.60;96.40;;;;;;5055209;28;19927;-48
2022/08/03 10:13:35;;;;;;;;;;;26.70;96.50;;;;;;5050483;28;20003;-49
2022/08/03 10:16:03;;;;;;;;;;;26.70;96.90;;;;;;5054468;28;19916;-47
2022/08/03 10:18:29;;;;;;;;;;;26.70;96.20;;;;;;5052160;28;20909;-48
2022/08/03 10:20:57;;;;;;;;;;;26.70;96.10;;;;;;5052351;28;19955;-46
2022/08/03 10:23:24;;;;;;;;;;;26.70;95.30;;;;;;5054152;28;19917;-48
2022/08/03 10:25:52;;;;;;;;;;;26.80;95.30;;;;;;5054910;28;19983;-48
2022/08/03 10:28:18;;;;;;;;;;;26.80;94.70;;;;;;5053800;28;20413;-46
2022/08/03 10:30:47;;;;;;;;;;;26.90;94.80;;;;;;5053607;28;20788;-47
2022/08/03 10:33:16;;;;;;;;;;;27.00;95.10;;;;;;5049949;28;19923;-46
2022/08/03 10:35:42;;;;;;;;;;;27.00;95.10;;;;;;5048612;28;19928;-46
2022/08/03 10:38:15;;;;;;;;;;;27.20;94.20;;;;;;5052725;28;19920;-47
2022/08/03 10:40:41;;;;;;;;;;;27.30;94.50;;;;;;5053143;28;20290;-46
2022/08/03 10:43:08;;;;;;;;;;;27.40;94.20;;;;;;5059008;28;19927;-45
2022/08/03 10:45:37;;;;;;;;;;;27.50;94.40;;;;;;5057610;28;19924;-48
2022/08/03 10:48:03;;;;;;;;;;;27.60;94.00;;;;;;5052007;28;20393;-46
2022/08/03 10:50:29;;;;;;;;;;;27.60;94.10;;;;;;5059845;28;19917;-46
2022/08/03 10:52:55;;;;;;;;;;;27.70;94.30;;;;;;5054686;28;19920;-47
2022/08/03 10:58:35;;;;;;;;;;;27.70;93.00;;;;;;5053064;28;19925;-48
2022/08/03 11:01:00;;;;;;;;;;;27.70;92.40;;;;;;5054813;28;19916;-46
2022/08/03 11:03:26;;;;;;;;;;;27.70;91.60;;;;;;5051743;28;19977;-46
2022/08/03 11:05:54;;;;;;;;;;;27.80;93.40;;;;;;5047202;28;19923;-46
2022/08/03 11:08:19;;;;;;;;;;;27.80;91.00;;;;;;5041355;28;19928;-46
2022/08/03 11:10:45;;;;;;;;;;;27.90;90.90;;;;;;5045552;28;19916;-47
2022/08/03 11:13:14;;;;;;;;;;;28.00;91.50;;;;;;5044520;28;19924;-46
2022/08/03 11:15:40;;;;;;;;;;;28.10;91.40;;;;;;5047060;28;20011;-48
2022/08/03 11:18:07;;;;;;;;;;;28.20;91.60;;;;;;5049103;28;19920;-45
2022/08/03 11:20:46;;;;;;;;;;;28.40;91.00;;;;;;5047952;28;19931;-47
2022/08/03 11:23:12;;;;;;;;;;;28.50;91.20;;;;;;5044658;28;19924;-46
2022/08/03 11:25:57;;;;;;;;;;;28.50;90.20;;;;;;5047941;28;20313;-48
2022/08/03 11:28:27;;;;;;;;;;;28.60;91.00;;;;;;5047855;28;20433;-48
2022/08/03 11:30:52;;;;;;;;;;;28.60;89.60;;;;;;5049610;28;19917;-48
2022/08/03 11:33:28;;;;;;;;;;;28.60;90.00;;;;;;5046064;28;20012;-47
2022/08/03 11:35:57;;;;;;;;;;;28.70;90.10;;;;;;5052152;28;20433;-46
2022/08/03 11:38:23;;;;;;;;;;;28.80;88.90;;;;;;5045935;28;20363;-48
2022/08/03 11:40:52;;;;;;;;;;;28.80;90.40;;;;;;5050005;28;19970;-49
2022/08/03 11:43:21;;;;;;;;;;;28.90;90.80;;;;;;5047350;28;20011;-47
2022/08/03 11:46:02;;;;;;;;;;;28.90;88.50;;;;;;5047108;28;19924;-47
2022/08/03 11:48:36;;;;;;;;;;;29.00;84.90;;;;;;5045915;28;19924;-46
2022/08/03 11:51:02;;;;;;;;;;;28.90;86.90;;;;;;5048149;28;20392;-46
2022/08/03 11:53:27;;;;;;;;;;;28.90;88.30;;;;;;5050671;28;19917;-48
2022/08/03 11:55:57;;;;;;;;;;;29.00;87.90;;;;;;5049007;28;19923;-47
2022/08/03 11:58:23;;;;;;;;;;;29.10;87.70;;;;;;5041314;28;19944;-47
2022/08/03 12:00:49;;;;;;;;;;;29.20;85.80;;;;;;5050510;28;20374;-45
2022/08/03 12:03:15;;;;;;;;;;;29.20;85.10;;;;;;5049393;28;20308;-47
2022/08/03 12:05:42;;;;;;;;;;;29.20;87.10;;;;;;5046082;28;19925;-47
2022/08/03 12:08:08;;;;;;;;;;;29.20;84.70;;;;;;5038053;28;19917;-48
2022/08/03 12:10:34;;;;;;;;;;;29.20;83.60;;;;;;5028763;28;19921;-48
2022/08/03 12:13:00;;;;;;;;;;;29.20;83.20;;;;;;5026886;28;19924;-46
2022/08/03 12:15:26;;;;;;;;;;;29.30;84.50;;;;;;5036917;28;20398;-48
2022/08/03 12:17:51;;;;;;;;;;;29.40;83.30;;;;;;5047467;28;19920;-48
2022/08/03 12:20:21;;;;;;;;;;;29.50;84.80;;;;;;5048208;28;20120;-47
2022/08/03 12:22:46;;;;;;;;;;;29.50;86.40;;;;;;5046948;28;19924;-45
2022/08/03 12:25:20;;;;;;;;;;;29.60;85.00;;;;;;5046234;28;19917;-47
2022/08/03 12:27:45;;;;;;;;;;;29.60;84.70;;;;;;5046973;28;20353;-48
2022/08/03 12:30:11;;;;;;;;;;;29.70;84.30;;;;;;5040574;28;19920;-48
2022/08/03 12:32:36;;;;;;;;;;;29.80;84.90;;;;;;5047445;28;19917;-45
2022/08/03 12:35:04;;;;;;;;;;;29.80;84.90;;;;;;5046871;28;20472;-47
2022/08/03 12:37:30;;;;;;;;;;;29.80;82.30;;;;;;5037533;28;19920;-48
2022/08/03 12:40:01;;;;;;;;;;;29.80;81.20;;;;;;5047657;28;20023;-46
2022/08/03 12:42:33;;;;;;;;;;;29.80;81.80;;;;;;5047013;28;20388;-48
2022/08/03 12:47:14;;;;;;;20.38;2.67;;;29.80;78.40;;;;;;5123531;27;20336;-46
2022/08/03 12:49:49;;;;;;;13.80;1.88;;;29.70;80.00;;;;;;5113558;28;20046;-46
2022/08/03 12:52:15;;;;;;;15.32;2.45;;;29.70;78.90;;;;;;5102923;28;20480;-48
2022/08/03 12:54:42;;;;;;;11.63;2.22;;;29.70;77.30;;;;;;5101903;28;20049;-48
2022/08/03 12:57:12;;;;;;;18.60;2.42;;;29.70;76.80;;;;;;5096074;28;20046;-47
2022/08/03 12:59:42;;;;;;;14.40;3.47;;;29.80;77.40;;;;;;5090996;28;20035;-48
2022/08/03 13:02:22;;;;;;;13.43;1.80;;;29.80;77.40;;;;;;5095963;28;20037;-49
2022/08/03 13:04:51;;;;;;;14.13;1.88;;;29.80;78.80;;;;;;5102583;28;20035;-47
2022/08/03 13:07:17;;;;;;;16.05;2.15;;;29.90;77.70;;;;;;5095760;28;20032;-48
2022/08/03 13:09:49;;;;;;;14.85;2.80;;;30.00;78.40;;;;;;5102848;28;20035;-46
2022/08/03 13:12:18;;;;;;;19.38;1.92;;;30.10;77.70;;;;;;5091883;28;20491;-47
2022/08/03 13:14:49;;;;;;;13.73;1.70;;;30.00;76.40;;;;;;5093692;28;20075;-49
2022/08/03 13:17:18;;;;;;;13.15;2.05;;;30.00;74.90;;;;;;5088178;28;20032;-48
2022/08/03 13:19:45;;;;;;;13.88;2.47;;;29.90;76.30;;;;;;5083182;28;20044;-46
2022/08/03 13:22:12;;;;;;;12.40;1.92;;;30.00;76.30;;;;;;5102255;28;20039;-48
2022/08/03 13:24:37;;;;;;;11.98;1.70;;;30.00;76.70;;;;;;5093298;28;20125;-48
2022/08/03 13:27:05;;;;;;;22.38;2.40;;;30.00;75.60;;;;;;5101783;28;20505;-47
2022/08/03 13:29:31;;;;;;;13.85;1.85;;;30.10;75.00;;;;;;5101050;28;20243;-47
2022/08/03 13:31:56;;;;;;;13.70;3.08;;;30.10;75.10;;;;;;5102313;28;20032;-50
2022/08/03 13:34:22;;;;;;;18.25;2.42;;;30.20;74.00;;;;;;5102266;28;20558;-50
2022/08/03 13:36:47;;;;;;;19.45;1.75;;;30.20;72.20;;;;;;5102049;28;20031;-48
2022/08/03 13:39:13;;;;;;;14.60;1.95;;;30.00;71.70;;;;;;5093753;28;20065;-47
2022/08/03 13:41:39;;;;;;;18.65;3.08;;;30.00;73.90;;;;;;5085149;28;20043;-48
2022/08/03 13:44:04;;;;;;;29.08;2.80;;;30.00;74.00;;;;;;5091529;28;20040;-48
2022/08/03 13:46:30;;;;;;;8.45;1.52;;;30.00;73.70;;;;;;5084769;28;20052;-48
2022/08/03 13:48:55;;;;;;;12.60;1.20;;;30.20;73.50;;;;;;5092856;28;20115;-48
2022/08/03 13:51:21;;;;;;;14.70;2.20;;;30.20;74.00;;;;;;5084329;28;20071;-46
2022/08/03 13:53:47;;;;;;;12.40;2.40;;;30.30;73.20;;;;;;5081575;28;20044;-46
2022/08/03 13:56:12;;;;;;;14.98;1.60;;;30.30;74.00;;;;;;5079839;28;20047;-49
2022/08/03 13:58:38;;;;;;;14.55;1.88;;;30.40;72.90;;;;;;5067258;28;20498;-46
2022/08/03 14:01:03;;;;;;;8.88;1.23;;;30.40;72.80;;;;;;5068213;28;20411;-49
2022/08/03 14:03:29;;;;;;;17.70;1.83;;;30.50;74.00;;;;;;5049737;28;20604;-49
2022/08/03 14:05:54;;;;;;;15.52;2.25;;;30.50;71.40;;;;;;5068917;28;20490;-46
2022/08/03 14:08:20;;;;;;;11.27;1.80;;;30.50;72.30;;;;;;5079703;28;20134;-46
2022/08/03 14:10:45;;;;;;;12.40;2.28;;;30.50;72.60;;;;;;5071428;28;20036;-48
2022/08/03 14:13:13;;;;;;;14.00;1.65;;;30.50;73.20;;;;;;5066735;28;20040;-47
2022/08/03 14:15:39;;;;;;;11.13;1.77;;;30.50;72.80;;;;;;5066403;28;20051;-48